Time;durP1;ratioP1;P1;durP2;ratioP2;P2;SDS_P1;SDS_P2;PMS_P1;PMS_P2;Temp;Humidity;BMP_temperature;BMP_pressure;BME280_temperature;BME280_humidity;BME280_pressure;Samples;Min_cycle;Max_cycle;Signal;HPM_P1;HPM_P2
2022/09/12 00:01:04;;;;;;;9.52;5.15;;;;;;;18.85;100.00;96519.63;5144067;27;20086;-53
2022/09/12 00:03:33;;;;;;;8.93;4.70;;;;;;;18.98;100.00;96510.88;5142677;27;20070;-50
2022/09/12 00:06:01;;;;;;;7.18;5.20;;;;;;;19.12;100.00;96515.28;5144017;27;20082;-47
2022/09/12 00:08:29;;;;;;;5.03;4.50;;;;;;;19.10;100.00;96516.53;5132603;27;20560;-58
2022/09/12 00:10:57;;;;;;;5.90;4.55;;;;;;;19.14;100.00;96513.25;5141089;27;20085;-53
2022/09/12 00:13:27;;;;;;;6.47;4.75;;;;;;;19.11;100.00;96516.31;5142758;27;20536;-56
2022/09/12 00:15:55;;;;;;;6.38;4.47;;;;;;;18.94;100.00;96513.13;5140600;27;20479;-53
2022/09/12 00:18:24;;;;;;;6.55;4.55;;;;;;;18.55;100.00;96516.31;5141931;27;20077;-57
2022/09/12 00:20:52;;;;;;;6.57;4.63;;;;;;;18.89;100.00;96509.38;5140890;27;20074;-53
2022/09/12 00:23:21;;;;;;;5.68;4.32;;;;;;;18.64;100.00;96501.78;5138953;27;20074;-51
2022/09/12 00:25:49;;;;;;;9.52;4.45;;;;;;;18.56;100.00;96503.78;5145138;27;20075;-53
2022/09/12 00:28:18;;;;;;;7.07;4.25;;;;;;;18.43;100.00;96499.97;5143574;27;20049;-54
2022/09/12 00:30:48;;;;;;;5.38;4.15;;;;;;;18.69;100.00;96502.03;5142689;27;20077;-53
2022/09/12 00:33:17;;;;;;;7.90;4.38;;;;;;;18.82;100.00;96501.31;5145411;27;20456;-54
2022/09/12 00:35:47;;;;;;;7.60;4.13;;;;;;;18.85;100.00;96500.09;5136770;27;20086;-50
2022/09/12 00:38:17;;;;;;;4.70;4.00;;;;;;;18.88;100.00;96505.88;5145433;27;20093;-49
2022/09/12 00:40:45;;;;;;;4.95;4.05;;;;;;;18.71;100.00;96504.50;5140522;27;20511;-54
2022/09/12 00:43:15;;;;;;;4.32;3.90;;;;;;;18.55;100.00;96504.78;5137295;27;20090;-49
2022/09/12 00:45:43;;;;;;;8.90;3.77;;;;;;;18.54;100.00;96497.78;5140919;27;20078;-55
2022/09/12 00:48:23;;;;;;;6.07;3.63;;;;;;;18.44;100.00;96498.97;5134842;27;20472;-55
2022/09/12 00:50:51;;;;;;;7.03;4.00;;;;;;;18.08;100.00;96503.56;5141466;27;20081;-54
2022/09/12 00:53:20;;;;;;;5.55;3.95;;;;;;;18.25;100.00;96496.94;5140542;27;20097;-53
2022/09/12 00:55:50;;;;;;;7.30;4.32;;;;;;;18.20;100.00;96492.19;5142012;27;20077;-51
2022/09/12 00:58:21;;;;;;;6.30;4.53;;;;;;;18.05;100.00;96493.25;5137351;27;20074;-52
2022/09/12 01:00:49;;;;;;;7.85;4.82;;;;;;;18.37;100.00;96486.56;5140609;27;20074;-50
2022/09/12 01:03:20;;;;;;;6.72;4.72;;;;;;;18.45;100.00;96487.25;5141063;27;20084;-55
2022/09/12 01:05:55;;;;;;;4.88;4.40;;;;;;;18.47;100.00;96487.88;5132257;27;20074;-51
2022/09/12 01:08:24;;;;;;;5.45;4.80;;;;;;;18.41;100.00;96479.81;5134444;27;20082;-52
2022/09/12 01:10:53;;;;;;;5.60;4.63;;;;;;;18.41;100.00;96472.66;5141131;27;20089;-51
2022/09/12 01:13:22;;;;;;;7.60;4.68;;;;;;;18.41;100.00;96471.81;5135586;27;20094;-49
2022/09/12 01:15:51;;;;;;;7.82;4.70;;;;;;;18.30;100.00;96473.16;5140862;27;20082;-49
2022/09/12 01:18:27;;;;;;;6.38;4.90;;;;;;;18.33;100.00;96475.44;5140031;27;20066;-50
2022/09/12 01:21:05;;;;;;;5.82;4.82;;;;;;;18.31;100.00;96466.81;5130736;27;20086;-51
2022/09/12 01:24:18;;;;;;;4.20;3.80;;;;;;;18.13;100.00;96474.44;5138713;27;20080;-47
2022/09/12 01:27:22;;;;;;;6.18;4.03;;;;;;;17.90;100.00;96472.00;5144552;27;20109;-49
2022/09/12 01:30:18;;;;;;;6.53;3.88;;;;;;;17.99;100.00;96470.81;5112972;27;20086;-48
2022/09/12 01:32:58;;;;;;;52.90;5.55;;;;;;;17.90;100.00;96459.47;5141373;27;20547;-55
2022/09/12 01:35:31;;;;;;;11.40;3.73;;;;;;;17.47;100.00;96463.91;5145077;27;20074;-48
2022/09/12 01:38:09;;;;;;;3.83;3.42;;;;;;;17.30;100.00;96460.63;5141340;27;20071;-54
2022/09/12 01:40:43;;;;;;;5.72;3.60;;;;;;;17.20;100.00;96460.06;5144203;27;20078;-48
2022/09/12 01:43:19;;;;;;;5.32;3.38;;;;;;;17.62;100.00;96459.34;5138602;27;20035;-55
2022/09/12 01:45:51;;;;;;;4.43;3.60;;;;;;;17.61;100.00;96459.53;5140662;27;20078;-52
2022/09/12 01:48:24;;;;;;;7.47;3.45;;;;;;;17.52;100.00;96461.50;5140371;27;20098;-48
2022/09/12 01:50:54;;;;;;;6.78;3.40;;;;;;;17.53;100.00;96457.81;5143204;27;20093;-50
2022/09/12 01:53:23;;;;;;;;;;;;;;;17.30;100.00;96463.28;5139302;27;20530;-55
2022/09/12 01:55:56;;;;;;;3.05;2.70;;;;;;;17.17;100.00;96458.63;5142753;27;19973;-47
2022/09/12 01:58:28;;;;;;;4.68;3.40;;;;;;;16.72;100.00;96462.28;5135456;27;20087;-59
2022/09/12 02:01:02;;;;;;;5.50;3.35;;;;;;;17.00;100.00;96447.34;5143298;27;20055;-51
2022/09/12 02:03:34;;;;;;;6.70;3.80;;;;;;;17.05;100.00;96450.25;5142731;27;20075;-53
2022/09/12 02:06:07;;;;;;;6.22;3.90;;;;;;;17.22;100.00;96448.22;5144987;27;20066;-50
2022/09/12 02:08:38;;;;;;;4.30;3.67;;;;;;;17.36;100.00;96435.06;5138829;27;20066;-53
2022/09/12 02:11:08;;;;;;;7.28;3.70;;;;;;;17.22;100.00;96445.56;5133265;27;20132;-55
2022/09/12 02:13:40;;;;;;;4.10;3.67;;;;;;;17.20;100.00;96442.25;5140261;27;20101;-51
2022/09/12 02:16:10;;;;;;;7.07;3.28;;;;;;;17.25;100.00;96439.84;5141337;27;20105;-52
2022/09/12 02:18:47;;;;;;;6.78;3.22;;;;;;;17.33;100.00;96433.59;5141956;27;20074;-51
2022/09/12 02:21:16;;;;;;;5.90;3.08;;;;;;;17.16;100.00;96429.50;5137373;27;20066;-48
2022/09/12 02:23:48;;;;;;;5.93;3.35;;;;;;;17.23;100.00;96430.41;5141446;27;20086;-53
2022/09/12 02:26:20;;;;;;;9.20;3.30;;;;;;;17.22;100.00;96426.09;5137449;27;20079;-53
2022/09/12 02:28:49;;;;;;;4.47;3.33;;;;;;;16.74;100.00;96431.81;5141839;27;20085;-49
2022/09/12 02:31:22;;;;;;;4.43;3.70;;;;;;;16.78;100.00;96422.44;5143276;27;20456;-54
2022/09/12 02:34:04;;;;;;;7.90;3.60;;;;;;;16.22;100.00;96421.19;5143910;27;20074;-50
2022/09/12 02:36:38;;;;;;;3.78;3.40;;;;;;;15.77;100.00;96426.38;5142579;27;20540;-57
2022/09/12 02:39:07;;;;;;;5.60;3.20;;;;;;;16.35;100.00;96422.22;5140065;27;20562;-53
2022/09/12 02:41:36;;;;;;;6.03;3.10;;;;;;;16.51;100.00;96423.06;5142087;27;20131;-50
2022/09/12 02:44:04;;;;;;;4.20;3.65;;;;;;;16.74;100.00;96415.00;5135225;27;20086;-49
2022/09/12 02:46:37;;;;;;;4.10;3.25;;;;;;;16.60;100.00;96412.13;5136336;27;20070;-50
2022/09/12 02:49:07;;;;;;;7.30;3.63;;;;;;;16.38;100.00;96416.53;5148844;27;20085;-49
2022/09/12 02:51:36;;;;;;;;;;;;;;;16.68;100.00;96421.88;5145743;27;20078;-49
2022/09/12 02:54:06;;;;;;;3.67;3.25;;;;;;;16.88;100.00;96416.84;5142972;27;19958;-50
2022/09/12 02:56:34;;;;;;;5.18;3.90;;;;;;;16.61;100.00;96420.94;5135453;27;20066;-49
2022/09/12 02:59:05;;;;;;;3.95;3.50;;;;;;;16.57;100.00;96425.81;5134914;27;20109;-54
2022/09/12 03:01:49;;;;;;;3.45;3.15;;;;;;;16.86;100.00;96416.19;5137046;27;20071;-51
2022/09/12 03:04:37;;;;;;;4.13;2.90;;;;;;;16.71;100.00;96418.84;5141510;27;20551;-47
2022/09/12 03:07:12;;;;;;;5.10;2.85;;;;;;;16.70;100.00;96416.38;5133012;27;20413;-50
2022/09/12 03:09:46;;;;;;;4.35;2.90;;;;;;;16.67;100.00;96420.22;5136587;27;20078;-51
2022/09/12 03:12:24;;;;;;;2.88;2.67;;;;;;;16.68;100.00;96415.72;5133691;27;20539;-57
2022/09/12 03:15:06;;;;;;;3.38;2.95;;;;;;;16.25;100.00;96423.50;5130777;27;20083;-53
2022/09/12 03:17:44;;;;;;;4.57;2.90;;;;;;;16.63;100.00;96405.63;5139610;27;20139;-49
2022/09/12 03:20:16;;;;;;;3.20;2.90;;;;;;;16.57;100.00;96425.00;5135782;27;20492;-53
2022/09/12 03:22:52;;;;;;;2.63;2.42;;;;;;;16.47;100.00;96419.94;5132042;27;20091;-52
2022/09/12 03:25:23;;;;;;;3.28;2.90;;;;;;;16.44;100.00;96422.13;5134697;27;20074;-55
2022/09/12 03:27:55;;;;;;;3.55;2.97;;;;;;;16.35;100.00;96422.22;5136028;27;20566;-50
2022/09/12 03:30:24;;;;;;;3.58;3.28;;;;;;;16.00;100.00;96420.22;5132308;27;20075;-54
2022/09/12 03:32:54;;;;;;;3.55;3.25;;;;;;;16.28;100.00;96423.97;5136546;27;20069;-53
2022/09/12 03:35:25;;;;;;;5.80;3.23;;;;;;;16.36;100.00;96415.88;5134640;27;20086;-57
2022/09/12 03:37:53;;;;;;;3.40;3.10;;;;;;;15.78;100.00;96422.72;5133537;27;20518;-52
2022/09/12 03:40:21;;;;;;;4.63;3.40;;;;;;;15.38;100.00;96421.97;5134457;27;20070;-52
2022/09/12 03:42:50;;;;;;;5.65;3.17;;;;;;;15.77;100.00;96423.72;5136859;27;20108;-52
2022/09/12 03:45:18;;;;;;;5.10;4.50;;;;;;;15.64;100.00;96426.13;5142509;27;20583;-54
2022/09/12 03:47:46;;;;;;;4.53;3.80;;;;;;;15.93;100.00;96424.59;5137913;27;20070;-57
2022/09/12 03:50:15;;;;;;;3.83;3.10;;;;;;;15.58;100.00;96430.28;5135547;27;20078;-52
2022/09/12 03:52:44;;;;;;;2.92;2.67;;;;;;;15.39;100.00;96431.59;5142037;27;20649;-50
2022/09/12 03:55:13;;;;;;;2.70;2.50;;;;;;;15.45;100.00;96424.75;5153647;27;20082;-50
2022/09/12 03:57:41;;;;;;;3.10;2.80;;;;;;;16.07;100.00;96423.81;5151945;27;20750;-54
2022/09/12 04:00:10;;;;;;;4.32;3.17;;;;;;;15.71;100.00;96424.44;5152888;27;20449;-52
2022/09/12 04:02:38;;;;;;;4.82;3.30;;;;;;;15.26;100.00;96418.06;5142486;27;20074;-49
2022/09/12 04:05:07;;;;;;;5.00;3.72;;;;;;;15.83;100.00;96425.69;5140355;27;20090;-51
2022/09/12 04:07:35;;;;;;;4.68;3.80;;;;;;;15.34;100.00;96418.00;5148252;27;20082;-56
2022/09/12 04:10:06;;;;;;;6.28;4.50;;;;;;;15.42;100.00;96419.78;5142023;27;20070;-51
2022/09/12 04:12:34;;;;;;;;;;;;;;;15.22;100.00;96416.75;5149072;27;20062;-51
2022/09/12 04:15:03;;;;;;;12.50;4.75;;;;;;;14.99;100.00;96423.84;5149261;27;20280;-50
2022/09/12 04:17:31;;;;;;;27.40;4.82;;;;;;;15.38;100.00;96421.13;5139219;27;20070;-52
2022/09/12 04:19:59;;;;;;;28.60;5.03;;;;;;;15.63;100.00;96419.97;5137712;27;20082;-49
2022/09/12 04:22:28;;;;;;;30.00;4.95;;;;;;;15.64;100.00;96423.47;5152061;27;20519;-53
2022/09/12 04:24:57;;;;;;;17.40;4.47;;;;;;;15.78;100.00;96420.06;5146693;27;20086;-51
2022/09/12 04:27:27;;;;;;;7.18;4.50;;;;;;;15.75;100.00;96420.41;5146088;27;20054;-48
2022/09/12 04:29:56;;;;;;;13.20;4.93;;;;;;;15.64;100.00;96421.63;5148918;27;20089;-49
2022/09/12 04:32:24;;;;;;;12.52;5.15;;;;;;;15.61;100.00;96424.63;5141378;27;20066;-49
2022/09/12 04:34:53;;;;;;;8.13;4.85;;;;;;;15.52;100.00;96422.19;5155162;27;20436;-53
2022/09/12 04:37:22;;;;;;;7.90;4.10;;;;;;;15.75;100.00;96424.91;5147733;27;20082;-57
2022/09/12 04:39:54;;;;;;;6.32;3.92;;;;;;;15.69;100.00;96425.59;5152117;27;20467;-52
2022/09/12 04:42:23;;;;;;;10.77;4.53;;;;;;;15.73;100.00;96424.28;5151599;27;20467;-52
2022/09/12 04:44:53;;;;;;;6.70;4.40;;;;;;;15.60;100.00;96424.81;5146612;27;20070;-50
2022/09/12 04:47:22;;;;;;;6.32;4.55;;;;;;;15.31;100.00;96417.50;5148636;27;20086;-50
2022/09/12 04:49:51;;;;;;;4.72;4.00;;;;;;;15.57;100.00;96420.69;5150960;27;20073;-50
2022/09/12 04:52:19;;;;;;;4.75;4.15;;;;;;;15.54;100.00;96409.56;5144136;27;20551;-53
2022/09/12 04:54:48;;;;;;;5.72;4.30;;;;;;;15.42;100.00;96410.00;5152228;27;20070;-54
2022/09/12 04:57:16;;;;;;;7.72;4.07;;;;;;;14.82;100.00;96413.28;5144927;27;20058;-49
2022/09/12 04:59:44;;;;;;;4.38;3.50;;;;;;;15.33;100.00;96418.19;5151972;27;20078;-50
2022/09/12 05:02:15;;;;;;;7.78;3.60;;;;;;;15.66;100.00;96422.31;5146463;27;20093;-50
2022/09/12 05:04:43;;;;;;;4.55;3.40;;;;;;;16.17;100.00;96419.06;5139243;27;20105;-51
2022/09/12 05:07:12;;;;;;;6.80;3.40;;;;;;;16.43;100.00;96412.50;5140767;27;20086;-55
2022/09/12 05:09:40;;;;;;;3.70;3.00;;;;;;;16.95;100.00;96419.59;5135318;27;20085;-47
2022/09/12 05:12:08;;;;;;;7.68;3.15;;;;;;;17.00;100.00;96425.22;5148084;27;20066;-54
2022/09/12 05:14:37;;;;;;;9.07;3.30;;;;;;;16.55;100.00;96427.00;5145266;27;20097;-50
2022/09/12 05:17:05;;;;;;;7.38;2.88;;;;;;;16.61;100.00;96421.78;5148103;27;20074;-49
2022/09/12 05:19:36;;;;;;;3.00;2.70;;;;;;;16.01;100.00;96425.38;5141296;27;20123;-55
2022/09/12 05:22:05;;;;;;;3.87;2.60;;;;;;;16.55;100.00;96434.97;5137392;27;20081;-46
2022/09/12 05:24:34;;;;;;;4.00;2.60;;;;;;;16.45;100.00;96429.09;5149169;27;20079;-53
2022/09/12 05:27:03;;;;;;;2.67;2.47;;;;;;;16.46;100.00;96433.44;5138374;27;20082;-51
2022/09/12 05:29:32;;;;;;;6.70;2.25;;;;;;;16.39;100.00;96428.00;5135676;27;20079;-51
2022/09/12 05:32:01;;;;;;;2.83;2.60;;;;;;;15.95;100.00;96438.56;5134760;27;20506;-47
2022/09/12 05:34:30;;;;;;;3.55;2.75;;;;;;;15.89;100.00;96442.75;5148627;27;20062;-56
2022/09/12 05:37:00;;;;;;;3.78;2.80;;;;;;;16.74;100.00;96436.28;5145619;27;20074;-50
2022/09/12 05:39:28;;;;;;;2.97;2.70;;;;;;;16.74;100.00;96441.63;5142754;27;20062;-55
2022/09/12 05:41:56;;;;;;;3.20;2.90;;;;;;;17.33;100.00;96430.91;5145872;27;20511;-50
2022/09/12 05:44:25;;;;;;;4.85;2.80;;;;;;;17.27;100.00;96442.31;5149898;27;20089;-48
2022/09/12 05:46:53;;;;;;;4.20;3.05;;;;;;;17.48;100.00;96441.53;5143803;27;20176;-48
2022/09/12 05:49:22;;;;;;;4.40;3.15;;;;;;;16.99;100.00;96442.19;5131350;27;20516;-57
2022/09/12 05:51:51;;;;;;;4.40;3.03;;;;;;;17.67;100.00;96440.13;5130314;27;20085;-56
2022/09/12 05:54:21;;;;;;;4.50;3.13;;;;;;;17.91;100.00;96441.63;5139906;27;20528;-55
2022/09/12 05:56:50;;;;;;;5.88;2.95;;;;;;;18.17;100.00;96444.53;5136099;27;20089;-46
2022/09/12 05:59:19;;;;;;;3.90;3.33;;;;;;;17.41;100.00;96441.50;5136314;27;20508;-52
2022/09/12 06:01:48;;;;;;;3.70;3.28;;;;;;;17.83;100.00;96437.25;5138277;27;20082;-48
2022/09/12 06:04:17;;;;;;;3.67;3.28;;;;;;;18.26;100.00;96437.19;5148469;27;20088;-54
2022/09/12 06:06:47;;;;;;;10.40;3.08;;;;;;;18.49;100.00;96442.31;5141718;27;20073;-50
2022/09/12 06:09:16;;;;;;;5.22;3.17;;;;;;;18.28;100.00;96443.19;5135499;27;20524;-52
2022/09/12 06:11:46;;;;;;;3.05;2.65;;;;;;;18.90;100.00;96439.72;5141882;27;20463;-51
2022/09/12 06:14:16;;;;;;;4.72;2.83;;;;;;;19.19;100.00;96438.63;5150652;27;20087;-51
2022/09/12 06:16:46;;;;;;;6.50;2.88;;;;;;;18.50;100.00;96447.44;5149574;27;20086;-54
2022/09/12 06:19:16;;;;;;;3.77;2.67;;;;;;;18.51;100.00;96445.59;5150442;27;20457;-52
2022/09/12 06:21:46;;;;;;;2.72;2.50;;;;;;;18.85;100.00;96442.13;5145521;27;21437;-55
2022/09/12 06:24:14;;;;;;;3.00;2.70;;;;;;;19.28;100.00;96438.47;5137259;27;20082;-50
2022/09/12 06:26:43;;;;;;;3.70;2.70;;;;;;;18.98;100.00;96441.41;5150284;27;20074;-48
2022/09/12 06:29:13;;;;;;;2.97;2.67;;;;;;;19.43;100.00;96447.16;5130058;27;20087;-53
2022/09/12 06:31:43;;;;;;;3.20;2.90;;;;;;;19.04;100.00;96445.97;5145548;27;20112;-51
2022/09/12 06:34:13;;;;;;;5.43;3.33;;;;;;;19.43;100.00;96439.94;5143005;27;20117;-51
2022/09/12 06:36:43;;;;;;;4.68;3.03;;;;;;;19.91;100.00;96437.22;5147998;27;20089;-49
2022/09/12 06:39:12;;;;;;;3.72;3.20;;;;;;;20.10;100.00;96438.28;5142889;27;20612;-51
2022/09/12 06:41:41;;;;;;;7.15;2.95;;;;;;;20.12;100.00;96440.72;5149491;27;20070;-54
2022/09/12 06:44:28;;;;;;;3.80;3.15;;;;;;;20.45;100.00;96438.06;5136262;27;20484;-53
2022/09/12 06:46:57;;;;;;;5.97;3.27;;;;;;;20.52;100.00;96435.41;5142789;27;20511;-51
2022/09/12 06:49:25;;;;;;;5.38;3.50;;;;;;;19.35;100.00;96441.97;5147832;27;20488;-57
2022/09/12 06:51:54;;;;;;;4.68;2.90;;;;;;;20.20;100.00;96434.34;5140056;27;20070;-52
2022/09/12 06:54:22;;;;;;;4.70;3.10;;;;;;;20.93;100.00;96440.50;5132889;27;20079;-49
2022/09/12 06:56:50;;;;;;;5.18;3.63;;;;;;;20.50;100.00;96442.78;5129718;27;20457;-52
2022/09/12 06:59:19;;;;;;;4.70;3.30;;;;;;;21.13;100.00;96435.06;5133928;27;20075;-51
2022/09/12 07:01:49;;;;;;;4.68;3.35;;;;;;;21.00;100.00;96445.84;5146799;27;20050;-50
2022/09/12 07:04:18;;;;;;;3.88;3.20;;;;;;;20.97;100.00;96432.84;5155078;27;20070;-49
2022/09/12 07:06:47;;;;;;;4.22;3.45;;;;;;;20.78;100.00;96434.53;5142527;27;20086;-50
2022/09/12 07:09:16;;;;;;;5.60;3.38;;;;;;;21.47;100.00;96431.25;5141976;27;20078;-48
2022/09/12 07:11:46;;;;;;;5.60;3.25;;;;;;;21.67;100.00;96431.13;5128907;27;20075;-53
2022/09/12 07:14:15;;;;;;;4.65;3.72;;;;;;;21.27;100.00;96438.53;5144603;27;20567;-50
2022/09/12 07:16:43;;;;;;;5.20;3.80;;;;;;;20.18;100.00;96439.91;5148657;27;20038;-51
2022/09/12 07:19:13;;;;;;;6.13;4.03;;;;;;;21.65;100.00;96429.72;5136179;27;20093;-53
2022/09/12 07:21:42;;;;;;;7.22;3.75;;;;;;;21.79;100.00;96434.78;5148188;27;20082;-51
2022/09/12 07:24:10;;;;;;;5.35;3.92;;;;;;;21.44;100.00;96439.72;5141104;27;20093;-48
2022/09/12 07:26:40;;;;;;;5.07;3.85;;;;;;;21.98;100.00;96433.00;5138357;27;20496;-52
2022/09/12 07:29:14;;;;;;;7.10;4.28;;;;;;;22.17;100.00;96438.50;5146686;27;20062;-54
2022/09/12 07:32:03;;;;;;;5.50;4.00;;;;;;;22.39;100.00;96437.06;5151479;27;20487;-56
2022/09/12 07:34:32;;;;;;;4.20;3.75;;;;;;;21.56;100.00;96440.69;5149967;27;20436;-54
2022/09/12 07:37:01;;;;;;;5.68;3.80;;;;;;;20.97;100.00;96443.56;5133692;27;20544;-53
2022/09/12 07:39:29;;;;;;;5.32;3.60;;;;;;;20.90;100.00;96456.19;5139399;27;20078;-51
2022/09/12 07:41:59;;;;;;;4.63;3.20;;;;;;;22.62;100.00;96432.94;5146167;27;20086;-56
2022/09/12 07:44:28;;;;;;;4.33;3.43;;;;;;;22.03;100.00;96441.25;5140304;27;20074;-57
2022/09/12 07:46:56;;;;;;;4.43;3.20;;;;;;;22.49;100.00;96437.38;5135732;27;20511;-55
2022/09/12 07:49:24;;;;;;;4.32;3.08;;;;;;;22.26;100.00;96439.84;5149343;27;20086;-60
2022/09/12 07:51:54;;;;;;;3.28;2.97;;;;;;;22.45;100.00;96441.56;5146808;27;20470;-56
2022/09/12 07:54:23;;;;;;;4.75;3.08;;;;;;;23.43;100.00;96434.56;5133347;27;20090;-57
2022/09/12 07:56:51;;;;;;;4.32;3.50;;;;;;;23.27;100.00;96435.19;5144821;27;20082;-56
2022/09/12 07:59:20;;;;;;;7.13;3.65;;;;;;;23.55;100.00;96429.25;5138487;27;20107;-56
2022/09/12 08:02:12;;;;;;;6.13;3.63;;;;;;;24.09;100.00;96435.56;5141376;27;20067;-56
2022/09/12 08:04:45;;;;;;;4.57;3.35;;;;;;;23.20;100.00;96436.09;5155251;27;20089;-55
2022/09/12 08:07:17;;;;;;;5.72;3.35;;;;;;;23.84;100.00;96436.53;5142263;27;20081;-50
2022/09/12 08:09:46;;;;;;;5.72;3.35;;;;;;;24.13;100.00;96439.44;5146183;27;20114;-56
2022/09/12 08:12:15;;;;;;;4.50;3.50;;;;;;;24.06;99.42;96439.53;5146385;27;20078;-54
2022/09/12 08:14:43;;;;;;;4.82;3.00;;;;;;;23.51;100.00;96433.44;5146491;27;20486;-56
2022/09/12 08:17:29;;;;;;;4.72;3.30;;;;;;;24.33;100.00;96442.63;5137006;27;20067;-54
2022/09/12 08:19:57;;;;;;;3.92;3.22;;;;;;;24.21;100.00;96443.66;5140376;27;20613;-58
2022/09/12 08:22:27;;;;;;;4.10;3.00;;;;;;;24.76;99.33;96444.22;5152870;27;20078;-54
2022/09/12 08:24:55;;;;;;;3.38;3.08;;;;;;;24.81;94.61;96444.34;5139250;27;20083;-56
2022/09/12 08:27:24;;;;;;;4.45;3.42;;;;;;;24.44;100.00;96449.13;5153055;27;20079;-56
2022/09/12 08:29:52;;;;;;;3.90;3.50;;;;;;;23.91;100.00;96448.00;5134361;27;20075;-55
2022/09/12 08:32:21;;;;;;;3.83;3.20;;;;;;;24.04;100.00;96449.72;5132056;27;20079;-50
2022/09/12 08:34:49;;;;;;;4.88;3.30;;;;;;;24.67;100.00;96445.59;5137831;27;20082;-51
2022/09/12 08:37:17;;;;;;;4.28;3.10;;;;;;;23.34;100.00;96452.91;5147906;27;20081;-47
2022/09/12 08:39:49;;;;;;;3.13;2.83;;;;;;;23.44;100.00;96450.50;5134409;27;20086;-51
2022/09/12 08:42:24;;;;;;;3.15;2.70;;;;;;;23.68;100.00;96451.47;5144982;27;21258;-50
2022/09/12 08:45:05;;;;;;;2.88;2.50;;;;;;;23.21;100.00;96453.03;5143074;27;20085;-54
2022/09/12 08:47:36;;;;;;;3.95;2.42;;;;;;;23.79;100.00;96454.44;5152382;27;20460;-50
2022/09/12 08:50:11;;;;;;;3.90;2.83;;;;;;;24.04;100.00;96447.00;5137422;27;20075;-48
2022/09/12 08:52:45;;;;;;;3.00;2.47;;;;;;;24.88;100.00;96446.91;5140461;27;20071;-51
2022/09/12 08:55:31;;;;;;;3.90;2.95;;;;;;;25.20;96.74;96443.88;5145635;27;20078;-50
2022/09/12 08:58:00;;;;;;;3.83;3.30;;;;;;;24.16;100.00;96450.56;5143890;27;20078;-54
2022/09/12 09:00:37;;;;;;;3.65;2.63;;;;;;;24.42;100.00;96453.91;5145921;27;20059;-54
2022/09/12 09:03:37;;;;;;;3.45;3.00;;;;;;;25.83;86.23;96440.28;5142263;27;20086;-53
2022/09/12 09:06:13;;;;;;;4.45;2.80;;;;;;;26.04;90.41;96436.06;5142773;27;20739;-54
2022/09/12 09:08:57;;;;;;;3.92;3.00;;;;;;;25.52;90.77;96438.84;5135283;27;20548;-52
2022/09/12 09:11:40;;;;;;;3.42;3.13;;;;;;;25.64;90.67;96434.22;5140240;27;20505;-52
2022/09/12 09:17:14;;;;;;;3.92;3.40;;;;;;;24.96;88.10;96441.16;5141196;27;20063;-50
2022/09/12 09:19:47;;;;;;;4.50;2.97;;;;;;;26.36;81.98;96433.66;5147983;27;20535;-50
2022/09/12 09:22:43;;;;;;;4.78;3.85;;;;;;;24.72;98.91;96444.94;5139789;27;20400;-49
2022/09/12 09:25:16;;;;;;;3.72;3.30;;;;;;;24.87;93.90;96439.88;5142380;27;20092;-55
2022/09/12 09:27:56;;;;;;;9.05;4.13;;;;;;;25.86;84.23;96429.00;5142835;27;20051;-52
2022/09/12 09:30:24;;;;;;;4.53;3.78;;;;;;;25.13;89.29;96432.38;5143303;27;20070;-53
2022/09/12 09:32:55;;;;;;;4.60;4.15;;;;;;;24.98;93.11;96432.81;5144506;27;20093;-53
2022/09/12 09:35:31;;;;;;;4.20;3.80;;;;;;;25.14;93.19;96426.72;5144154;27;20082;-55
2022/09/12 09:38:07;;;;;;;;;;;;;;;26.57;78.22;96423.19;5131676;27;20647;-54
2022/09/12 09:40:45;;;;;;;4.47;3.75;;;;;;;26.48;73.86;96423.59;5143412;27;19962;-54
2022/09/12 09:43:21;;;;;;;5.60;4.32;;;;;;;25.96;76.84;96421.06;5141839;27;20090;-52
2022/09/12 09:45:50;;;;;;;6.75;4.50;;;;;;;26.07;76.83;96426.66;5138497;27;20078;-52
2022/09/12 09:48:20;;;;;;;5.82;4.50;;;;;;;25.89;82.25;96422.28;5140380;27;20079;-55
2022/09/12 09:50:49;;;;;;;4.75;4.05;;;;;;;26.63;77.10;96420.28;5135859;27;20082;-54
2022/09/12 09:53:26;;;;;;;5.30;4.80;;;;;;;25.80;75.09;96421.84;5149272;27;20078;-55
2022/09/12 09:55:55;;;;;;;4.80;4.22;;;;;;;26.31;72.43;96419.22;5131995;27;20090;-50
2022/09/12 09:58:32;;;;;;;4.38;3.83;;;;;;;26.11;73.63;96417.81;5130546;27;20106;-52
2022/09/12 10:01:02;;;;;;;4.18;3.25;;;;;;;25.22;78.61;96420.94;5143755;27;20144;-51
2022/09/12 10:03:32;;;;;;;4.55;3.50;;;;;;;26.41;66.06;96419.38;5137452;27;20083;-55
2022/09/12 10:06:01;;;;;;;;;;;;;;;26.19;72.17;96406.63;5145450;27;20059;-50
2022/09/12 10:08:31;;;;;;;4.70;3.50;;;;;;;25.90;79.24;96403.13;5145728;27;20372;-51
2022/09/12 10:11:02;;;;;;;4.05;3.60;;;;;;;25.82;76.58;96405.41;5139583;27;20082;-55
2022/09/12 10:13:46;;;;;;;4.22;3.40;;;;;;;25.86;72.83;96398.47;5132728;27;20135;-51
2022/09/12 10:16:21;;;;;;;4.18;3.78;;;;;;;25.07;93.57;96409.81;5136159;27;20070;-48
2022/09/12 10:18:51;;;;;;;4.32;3.88;;;;;;;25.55;87.71;96406.78;5146198;27;20074;-49
2022/09/12 10:21:26;;;;;;;4.60;3.97;;;;;;;25.72;85.10;96404.13;5147327;27;20067;-50
2022/09/12 10:24:02;;;;;;;4.53;4.13;;;;;;;26.16;78.91;96404.41;5141909;27;20079;-50
2022/09/12 10:26:36;;;;;;;3.97;3.50;;;;;;;26.38;68.98;96396.34;5136974;27;20090;-53
2022/09/12 10:29:12;;;;;;;5.00;4.30;;;;;;;26.43;67.52;96395.63;5129906;27;20079;-50
2022/09/12 10:31:45;;;;;;;4.20;3.80;;;;;;;27.80;60.92;96385.00;5138067;27;20089;-53
2022/09/12 10:34:22;;;;;;;3.80;3.10;;;;;;;27.29;63.68;96382.53;5150135;27;20532;-53
2022/09/12 10:36:53;;;;;;;5.22;3.55;;;;;;;27.50;61.46;96380.88;5143339;27;20484;-58
2022/09/12 10:39:22;;;;;;;3.83;3.50;;;;;;;26.71;68.46;96378.50;5142893;27;20082;-54
2022/09/12 10:41:51;;;;;;;5.53;3.42;;;;;;;27.05;68.85;96379.22;5149595;27;20543;-51
2022/09/12 10:44:26;;;;;;;3.92;3.00;;;;;;;27.46;62.58;96382.47;5142722;27;20480;-51
2022/09/12 10:46:54;;;;;;;5.85;4.35;;;;;;;27.14;61.56;96382.34;5129828;27;20541;-56
2022/09/12 10:49:26;;;;;;;4.47;2.67;;;;;;;27.76;54.99;96381.16;5129502;27;20089;-55
2022/09/12 10:51:58;;;;;;;3.40;2.80;;;;;;;27.69;52.85;96382.16;5139427;27;20115;-51
2022/09/12 10:54:28;;;;;;;2.80;2.60;;;;;;;27.51;53.41;96387.13;5132981;27;20089;-57
2022/09/12 10:57:16;;;;;;;4.13;3.60;;;;;;;28.02;53.93;96374.91;5133228;27;20083;-57
2022/09/12 11:00:05;;;;;;;3.35;3.05;;;;;;;27.98;55.53;96379.22;5136575;27;20548;-57
2022/09/12 11:02:50;;;;;;;5.18;3.78;;;;;;;28.37;53.04;96382.53;5138100;27;20539;-48
2022/09/12 11:05:35;;;;;;;3.55;3.13;;;;;;;28.23;54.50;96383.22;5142363;27;20078;-55
2022/09/12 11:08:12;;;;;;;3.83;3.42;;;;;;;27.79;57.62;96377.94;5140958;27;20127;-55
2022/09/12 11:10:45;;;;;;;5.15;3.55;;;;;;;28.06;60.52;96378.75;5140042;27;20101;-50
2022/09/12 11:13:21;;;;;;;4.35;3.70;;;;;;;28.27;52.61;96381.63;5147001;27;20471;-58
2022/09/12 11:16:06;;;;;;;3.17;2.60;;;;;;;28.43;48.76;96378.00;5147149;27;20078;-55
2022/09/12 11:19:03;;;;;;;3.53;2.78;;;;;;;28.20;50.09;96372.91;5141563;27;20051;-51
2022/09/12 11:21:43;;;;;;;3.05;2.75;;;;;;;28.37;46.82;96366.25;5140060;27;20086;-54
2022/09/12 11:24:33;;;;;;;3.85;3.33;;;;;;;28.78;47.91;96369.25;5139840;27;20078;-54
2022/09/12 11:27:12;;;;;;;3.75;3.45;;;;;;;28.74;47.45;96359.22;5145940;27;20074;-52
2022/09/12 11:29:49;;;;;;;3.88;3.38;;;;;;;28.47;48.48;96370.97;5137243;27;20465;-56
2022/09/12 11:32:45;;;;;;;2.75;2.55;;;;;;;28.75;49.00;96358.94;5136613;27;20085;-54
2022/09/12 11:35:19;;;;;;;3.72;2.38;;;;;;;27.92;49.11;96361.28;5137231;27;20085;-55
2022/09/12 11:37:59;;;;;;;4.50;2.70;;;;;;;27.84;49.18;96359.00;5146038;27;20489;-53
2022/09/12 11:40:32;;;;;;;3.22;2.92;;;;;;;27.65;51.45;96351.22;5135959;27;20083;-54
2022/09/12 11:43:04;;;;;;;4.35;2.83;;;;;;;26.98;52.84;96360.47;5132700;27;20168;-49
2022/09/12 11:45:37;;;;;;;3.55;3.00;;;;;;;28.46;48.95;96357.66;5149871;27;20070;-52
2022/09/12 11:48:10;;;;;;;3.88;3.10;;;;;;;28.57;49.31;96354.75;5140928;27;20082;-55
2022/09/12 11:50:39;;;;;;;3.83;2.92;;;;;;;28.06;50.04;96354.34;5151101;27;20106;-56
2022/09/12 11:53:15;;;;;;;3.78;3.40;;;;;;;27.74;51.77;96354.31;5133086;27;20090;-53
2022/09/12 11:55:53;;;;;;;3.25;2.60;;;;;;;27.61;51.11;96354.72;5133280;27;20109;-52